ADDS METAR Data INFO
IDs: Format: Raw Decoded Include TAF

Data at: 1113 UTC 13 Dec 2017

KAXH 131055Z AUTO 10SM CLR M01/M01 A3019 RMK AO2 T10061009
KAXH 131035Z AUTO 10SM CLR M01/M01 A3020 RMK AO2 T10071010
KAXH 131015Z AUTO 10SM CLR 00/00 A3020 RMK AO2 T10011003
KAXH 130955Z AUTO 10SM CLR 00/00 A3020 RMK AO2 T10041005
KAXH 130935Z AUTO 00000KT 7SM CLR 00/00 A3020 RMK AO2 T10021004
KAXH 130915Z AUTO 10SM CLR M01/M01 A3021 RMK AO2 T10061011
KAXH 130855Z AUTO 10SM CLR 00/00 A3021 RMK AO2 T00001002
KAXH 130835Z AUTO 10SM CLR 00/00 A3022 RMK AO2 T00001004
KAXH 130815Z AUTO 10SM CLR 00/M01 A3023 RMK AO2 T10051008
KAXH 130755Z AUTO 10SM CLR 00/00 A3024 RMK AO2 T00040000
KAXH 130735Z AUTO 10SM CLR 01/00 A3023 RMK AO2 T00060001
KAXH 130715Z AUTO 10SM CLR 00/00 A3023 RMK AO2 T00030000
KAXH 130655Z AUTO 00000KT 10SM CLR 01/00 A3024 RMK AO2 T00110003
KAXH 130635Z AUTO 00000KT 10SM CLR 02/00 A3025 RMK AO2 T00190001
KAXH 130615Z AUTO 00000KT 10SM CLR 02/00 A3025 RMK AO2 T00200004
KAXH 130555Z AUTO 33004G17KT 10SM CLR 03/01 A3026 RMK AO2 T00280008 10120 20007
KAXH 130535Z AUTO 33013G17KT 10SM CLR 02/00 A3026 RMK AO2 T00231001
KAXH 130515Z AUTO 32008KT 10SM CLR 04/01 A3027 RMK AO2 T00390007
KAXH 130455Z AUTO 33010G17KT 10SM CLR 03/01 A3027 RMK AO2 T00320012
KAXH 130435Z AUTO 10SM CLR 02/00 A3027 RMK AO2 T00241001
KAXH 130415Z AUTO 28004KT 10SM CLR 02/01 A3027 RMK AO2 T00240013
KAXH 130355Z AUTO 00000KT 10SM CLR 02/00 A3027 RMK AO2 T00161003
KAXH 130335Z AUTO 00000KT 10SM CLR 04/02 A3027 RMK AO2 T00370019
KAXH 130315Z AUTO 00000KT 10SM CLR 04/01 A3027 RMK AO2 T00370008
KAXH 130255Z AUTO 32004KT 10SM CLR 04/01 A3027 RMK AO2 T00370008
KAXH 130235Z AUTO 00000KT 10SM CLR 06/01 A3027 RMK AO2 T00640011
KAXH 130215Z AUTO 00000KT 10SM CLR 08/00 A3026 RMK AO2 T00761005
KAXH 130155Z AUTO 00000KT 10SM CLR 09/01 A3026 RMK AO2 T00850007
KAXH 130140Z AUTO 00000KT 10SM CLR 09/01 A3026 RMK AO2 T00860009
KAXH 130110Z AUTO 00000KT 10SM CLR 09/00 A3026 RMK AO2 T00920003
KAXH 130055Z AUTO 32003KT 10SM CLR 09/01 A3025 RMK AO2 T00860009
KAXH 130035Z AUTO 00000KT 10SM CLR 10/01 A3025 RMK AO2 T00960009
KAXH 130015Z AUTO 00000KT 10SM CLR 11/00 A3025 RMK AO2 T01081001
KAXH 122355Z AUTO 33003KT 10SM CLR 12/M01 A3024 RMK AO2 T01201012 10175 20120
KAXH 122335Z AUTO 33003KT 10SM CLR 13/M01 A3024 RMK AO2 T01271012
KAXH 122315Z AUTO 34005KT 10SM CLR 14/M01 A3024 RMK AO2 T01391014
KAXH 122255Z AUTO 33006KT 10SM CLR 15/M01 A3024 RMK AO2 T01521013
KAXH 122235Z AUTO 33007KT 10SM CLR 16/M01 A3024 RMK AO2 T01611013
KAXH 122215Z AUTO 35005KT 10SM CLR 17/M02 A3024 RMK AO2 T01661018
KAXH 122155Z AUTO 34007KT 10SM CLR 17/M02 A3023 RMK AO2 T01701020
KAXH 122135Z AUTO 36009KT 10SM CLR 17/M02 A3024 RMK AO2 T01711025
KAXH 122115Z AUTO 35011G14KT 10SM CLR 17/M02 A3024 RMK AO2 T01711019
KAXH 122055Z AUTO 34008KT 10SM CLR 17/00 A3024 RMK AO2 T01721003
KAXH 122035Z AUTO 32008G15KT 10SM CLR 17/00 A3024 RMK AO2 T01701002
KAXH 122015Z AUTO 34007KT 10SM CLR 17/00 A3025 RMK AO2 T01711001
KAXH 121955Z AUTO 32011KT 10SM CLR 17/00 A3025 RMK AO2 T01700001
KAXH 121935Z AUTO 34008KT 10SM CLR 17/00 A3026 RMK AO2 T01740002
KAXH 121915Z AUTO 36008G15KT 10SM CLR 17/00 A3027 RMK AO2 T01690000
KAXH 121855Z AUTO 35008KT 10SM CLR 17/00 A3028 RMK AO2 T01680002
KAXH 121835Z AUTO 02008G15KT 10SM CLR 16/00 A3029 RMK AO2 T01640000
KAXH 121815Z AUTO 35010G16KT 10SM CLR 17/00 A3030 RMK AO2 T01650002
KAXH 121755Z AUTO 02010G14KT 10SM CLR 17/00 A3031 RMK AO2 T01650001 10166 20089
KAXH 121735Z AUTO 36009G15KT 10SM CLR 16/00 A3032 RMK AO2 T01610000
KAXH 121715Z AUTO 02011G16KT 10SM CLR 16/00 A3032 RMK AO2 T01560000
KAXH 121655Z AUTO 01010G17KT 10SM CLR 15/00 A3033 RMK AO2 T01521004
KAXH 121635Z AUTO 03009G17KT 10SM CLR 15/00 A3034 RMK AO2 T01500000
KAXH 121615Z AUTO 03013G20KT 10SM CLR 14/00 A3034 RMK AO2 T01441004
KAXH 121555Z AUTO 02012G17KT 10SM CLR 14/00 A3034 RMK AO2 T01421001
KAXH 121535Z AUTO 01010G15KT 10SM CLR 14/00 A3033 RMK AO2 T01361005
KAXH 121515Z AUTO 02009KT 10SM CLR 13/00 A3033 RMK AO2 T01321003
KAXH 121455Z AUTO 01008G14KT 10SM CLR 13/00 A3033 RMK AO2 T01291001
KAXH 121435Z AUTO 01009G15KT 10SM CLR 12/00 A3032 RMK AO2 T01231002
KAXH 121415Z AUTO 01006KT 10SM CLR 11/00 A3031 RMK AO2 T01120000
KAXH 121355Z AUTO 36005KT 10SM CLR 10/00 A3031 RMK AO2 T00970002
KAXH 121335Z AUTO 00000KT 10SM CLR 10/00 A3030 RMK AO2 T00950000
KAXH 121315Z AUTO 01005KT 10SM CLR 10/00 A3029 RMK AO2 T01011003
KAXH 121255Z AUTO 01005KT 10SM CLR 10/00 A3028 RMK AO2 T01000000
KAXH 121235Z AUTO 01005KT 10SM CLR 10/00 A3027 RMK AO2 T00980002
KAXH 121215Z AUTO 01005KT 10SM CLR 10/01 A3026 RMK AO2 T00990010
KAXH 121155Z AUTO 36005KT 10SM CLR 09/02 A3025 RMK AO2 T00870021 10111 20078
KAXH 121135Z AUTO 35005KT 10SM CLR 08/03 A3024 RMK AO2 T00820027
KAXH 121115Z AUTO 33004KT 10SM CLR 08/03 A3024 RMK AO2 T00780031
KAXH 121055Z AUTO 00000KT 10SM CLR 09/03 A3023 RMK AO2 T00910032
KAXH 121035Z AUTO 32004KT 10SM CLR 09/04 A3022 RMK AO2 T00890035
KAXH 121015Z AUTO 31007KT 10SM CLR 09/04 A3022 RMK AO2 T00920037
KAXH 120955Z AUTO 31005KT 10SM CLR 09/04 A3021 RMK AO2 T00900040
KAXH 120935Z AUTO 29004KT 10SM CLR 09/04 A3020 RMK AO2 T00880041
KAXH 120915Z AUTO 28003KT 10SM CLR 09/04 A3020 RMK AO2 T00900041
KAXH 120855Z AUTO 26003KT 10SM CLR 09/04 A3019 RMK AO2 T00890042
KAXH 120835Z AUTO 25003KT 10SM CLR 10/04 A3020 RMK AO2 T00960041
KAXH 120815Z AUTO 27004KT 10SM CLR 11/04 A3020 RMK AO2 T01070043
KAXH 120755Z AUTO 27005KT 10SM CLR 11/05 A3019 RMK AO2 T01100045
KAXH 120735Z AUTO 28005KT 10SM CLR 11/05 A3019 RMK AO2 T01080049
KAXH 120715Z AUTO 27005KT 10SM CLR 10/05 A3019 RMK AO2 T01000053
KAXH 120655Z AUTO 27003KT 10SM CLR 10/06 A3020 RMK AO2 T00950056
KAXH 120635Z AUTO 27003KT 10SM CLR 10/06 A3020 RMK AO2 T00990060
KAXH 120615Z AUTO 26003KT 10SM CLR 10/06 A3020 RMK AO2 T00950060
KAXH 120555Z AUTO 00000KT 10SM CLR 10/06 A3020 RMK AO2 T01040062 10157 20104
KAXH 120535Z AUTO 26004KT 10SM CLR 11/07 A3021 RMK AO2 T01100065
KAXH 120515Z AUTO 25004KT 10SM CLR 11/07 A3021 RMK AO2 T01100065
KAXH 120455Z AUTO 27004KT 10SM CLR 11/06 A3021 RMK AO2 T01100063
KAXH 120435Z AUTO 24003KT 10SM CLR 11/06 A3021 RMK AO2 T01070060
KAXH 120415Z AUTO 23003KT 10SM CLR 11/06 A3020 RMK AO2 T01110057
KAXH 120355Z AUTO 24003KT 10SM CLR 12/06 A3021 RMK AO2 T01160057
KAXH 120335Z AUTO 25003KT 10SM CLR 12/06 A3021 RMK AO2 T01220057
KAXH 120315Z AUTO 24004KT 10SM CLR 12/06 A3021 RMK AO2 T01230055
KAXH 120255Z AUTO 23004KT 10SM CLR 13/05 A3021 RMK AO2 T01260051
KAXH 120235Z AUTO 24004KT 10SM CLR 13/04 A3021 RMK AO2 T01260043
KAXH 120215Z AUTO 23004KT 10SM CLR 13/04 A3021 RMK AO2 T01280041
KAXH 120155Z AUTO 23004KT 10SM CLR 13/03 A3021 RMK AO2 T01280032
KAXH 120135Z AUTO 00000KT 10SM CLR 13/03 A3022 RMK AO2 T01280026
KAXH 120115Z AUTO 00000KT 10SM CLR 14/03 A3021 RMK AO2 T01360025
KAXH 120055Z AUTO 00000KT 10SM CLR 15/02 A3020 RMK AO2 T01470022
KAXH 120035Z AUTO 00000KT 10SM CLR 15/02 A3020 RMK AO2 T01510024
KAXH 120015Z AUTO 24003KT 10SM CLR 15/02 A3020 RMK AO2 T01480022
KAXH 112355Z AUTO 23003KT 10SM CLR 16/02 A3019 RMK AO2 T01570018 10230 20157
KAXH 112335Z AUTO 23003KT 10SM CLR 17/01 A3019 RMK AO2 T01690014
KAXH 112315Z AUTO 23003KT 10SM CLR 19/01 A3019 RMK AO2 T01850011